Magnolia — WDB7135 — position and weather

sailwx.info

Track history (hours):
 
Tides and Currents Weather Stations Pressure Air Temp Water Temp Dewpoint Dewpoint Depression Visibility Wind Speed Wind Dir Waves Ship Positions

Magnolia

Owner: Magnolia Marine Transport Co, Vicksburg, MS. More information available from US FCC via Universal Licensing System and Coast Guard Vessel Documentation Center.

Last reported at 2017-Apr-28 10:22 UTC. Time now 2017-Apr-28 12:04 UTC.
Position N 32°06' W 091°06'.

Length 215 m.

MMSI: 366936960.

Date/timePositionNaut miles runAvg speedWind from/ knotsBaromVisibWave heightAir tempDewpointWater temp
2017-Apr-28 10:22N 32°06' W 091°06'4 6.0
2017-Apr-28 09:46N 32°07' W 091°02'2 8.0
2017-Apr-28 09:30N 32°09' W 091°00'510.3
2017-Apr-28 09:00N 32°14' W 090°59'510.6
2017-Apr-28 08:30N 32°18' W 090°55'4 8.4
2017-Apr-28 08:00N 32°22' W 090°53'0 0.3
2017-Apr-28 07:30N 32°22' W 090°53'0 0.0
2017-Apr-28 07:00N 32°22' W 090°53'0 0.0
2017-Apr-28 06:30N 32°22' W 090°53'0 0.4
2017-Apr-28 06:00N 32°22' W 090°53'1 1.5
2017-Apr-28 05:30N 32°21' W 090°53'1 1.8
2017-Apr-28 05:00N 32°20' W 090°54'2 3.3
2017-Apr-28 04:30N 32°19' W 090°54'2 4.2
2017-Apr-28 04:00N 32°17' W 090°56'2 4.6
2017-Apr-28 03:30N 32°16' W 090°58'2 4.3
2017-Apr-28 03:00N 32°14' W 090°59'2 4.5
2017-Apr-28 02:30N 32°12' W 090°59'2 4.2
2017-Apr-28 02:00N 32°10' W 090°60'3 5.0
2017-Apr-28 01:30N 32°07' W 091°01'2 4.3
2017-Apr-28 00:58N 32°08' W 091°04'2 4.7
2017-Apr-28 00:30N 32°07' W 091°06'5 3.1
2017-Apr-27 22:52N 32°03' W 091°04'  
2017-Apr-21 21:06N 32°00' W 091°05'2 8.5
2017-Apr-21 20:54N 32°02' W 091°04'4 7.3
2017-Apr-21 20:18N 32°06' W 091°06'2 6.4
2017-Apr-21 20:00N 32°08' W 091°06'4 8.1
2017-Apr-21 19:30N 32°07' W 091°01'4 8.8
2017-Apr-21 19:00N 32°12' W 090°60'4 8.7
2017-Apr-21 18:30N 32°16' W 090°58'4 7.3
2017-Apr-21 18:00N 32°18' W 090°55'0 0.2
2017-Apr-21 17:30N 32°18' W 090°55'0 0.0
2017-Apr-21 17:00N 32°18' W 090°55'0 0.0
2017-Apr-21 16:30N 32°18' W 090°55'0 0.0
2017-Apr-21 16:00N 32°18' W 090°55'0 0.0
2017-Apr-21 15:30N 32°18' W 090°55'0 0.0
2017-Apr-21 15:00N 32°18' W 090°55'0 0.0
2017-Apr-21 14:30N 32°18' W 090°55'1 1.0
2017-Apr-21 13:30N 32°19' W 090°54'3 6.5
2017-Apr-21 13:00N 32°21' W 090°57'3 6.1
2017-Apr-21 12:30N 32°23' W 090°60'4 7.6
2017-Apr-21 12:00N 32°26' W 091°03'5 9.1
2017-Apr-21 11:30N 32°29' W 091°07'5 9.3
2017-Apr-21 11:00N 32°33' W 091°06'5 9.1
2017-Apr-21 10:29N 32°37' W 091°09'  
Track history (hours):
 
Tides and Currents Weather Stations Pressure Air Temp Water Temp Dewpoint Dewpoint Depression Visibility Wind Speed Wind Dir Waves Ship Positions

Magnolia

Owner: Magnolia Marine Transport Co, Vicksburg, MS. More information available from US FCC via Universal Licensing System and Coast Guard Vessel Documentation Center.

Last reported at 2017-Apr-28 10:22 UTC. Time now 2017-Apr-28 12:04 UTC.
Position N 32°06' W 091°06'.

Length 215 m.

MMSI: 366936960.

Date/timePositionNaut miles runAvg speedWind from/ knotsBaromVisibWave heightAir tempDewpointWater temp
2017-Apr-28 10:22N 32°06' W 091°06'4 6.0
2017-Apr-28 09:46N 32°07' W 091°02'2 8.0
2017-Apr-28 09:30N 32°09' W 091°00'510.3
2017-Apr-28 09:00N 32°14' W 090°59'510.6
2017-Apr-28 08:30N 32°18' W 090°55'4 8.4
2017-Apr-28 08:00N 32°22' W 090°53'0 0.3
2017-Apr-28 07:30N 32°22' W 090°53'0 0.0
2017-Apr-28 07:00N 32°22' W 090°53'0 0.0
2017-Apr-28 06:30N 32°22' W 090°53'0 0.4
2017-Apr-28 06:00N 32°22' W 090°53'1 1.5
2017-Apr-28 05:30N 32°21' W 090°53'1 1.8
2017-Apr-28 05:00N 32°20' W 090°54'2 3.3
2017-Apr-28 04:30N 32°19' W 090°54'2 4.2
2017-Apr-28 04:00N 32°17' W 090°56'2 4.6
2017-Apr-28 03:30N 32°16' W 090°58'2 4.3
2017-Apr-28 03:00N 32°14' W 090°59'2 4.5
2017-Apr-28 02:30N 32°12' W 090°59'2 4.2
2017-Apr-28 02:00N 32°10' W 090°60'3 5.0
2017-Apr-28 01:30N 32°07' W 091°01'2 4.3
2017-Apr-28 00:58N 32°08' W 091°04'2 4.7
2017-Apr-28 00:30N 32°07' W 091°06'5 3.1
2017-Apr-27 22:52N 32°03' W 091°04'  
2017-Apr-21 21:06N 32°00' W 091°05'2 8.5
2017-Apr-21 20:54N 32°02' W 091°04'4 7.3
2017-Apr-21 20:18N 32°06' W 091°06'2 6.4
2017-Apr-21 20:00N 32°08' W 091°06'4 8.1
2017-Apr-21 19:30N 32°07' W 091°01'4 8.8
2017-Apr-21 19:00N 32°12' W 090°60'4 8.7
2017-Apr-21 18:30N 32°16' W 090°58'4 7.3
2017-Apr-21 18:00N 32°18' W 090°55'0 0.2
2017-Apr-21 17:30N 32°18' W 090°55'0 0.0
2017-Apr-21 17:00N 32°18' W 090°55'0 0.0
2017-Apr-21 16:30N 32°18' W 090°55'0 0.0
2017-Apr-21 16:00N 32°18' W 090°55'0 0.0
2017-Apr-21 15:30N 32°18' W 090°55'0 0.0
2017-Apr-21 15:00N 32°18' W 090°55'0 0.0
2017-Apr-21 14:30N 32°18' W 090°55'1 1.0
2017-Apr-21 13:30N 32°19' W 090°54'3 6.5
2017-Apr-21 13:00N 32°21' W 090°57'3 6.1
2017-Apr-21 12:30N 32°23' W 090°60'4 7.6
2017-Apr-21 12:00N 32°26' W 091°03'5 9.1
2017-Apr-21 11:30N 32°29' W 091°07'5 9.3
2017-Apr-21 11:00N 32°33' W 091°06'5 9.1
2017-Apr-21 10:29N 32°37' W 091°09'  

Dump ship's entire track history